Pahrump, Nevada Weather observations

Data are for observation ending at time listed.
 Day   Time    Ave.   Ave.  Ave.  Vector   Max.   Stn.    Total    Solar   Ave.  
  of    of     Air    Rel.  Wind   Wind    Wind   Baro.  Precip.   Rad.    Soil  
Year   Day     Temp.  Hum.  Speed  Dir.    Gust   Pres.                    Temp. 
2014   (PST)    F      %     mph   deg.    mph     mb.     in.     W/m2     F   
------------------------------------------------------------------------------
 109    0:00   69.7    25    8.0   140     12.1   919.2    0.00       0    71.5
 109    0:10   69.5    27    7.2   138     11.6   919.2    0.00       0    71.5
 109    0:20   69.4    27    7.2   150     12.9   919.3    0.00       0    71.4
 109    0:30   69.5    27    7.1   162     10.7   919.2    0.00       0    71.3
 109    0:40   69.5    27    9.0   171     14.0   919.2    0.00       0    71.3
 109    0:50   69.5    25    8.9   160     13.3   919.2    0.00       0    71.2
 109    1:00   69.1    25    7.7   142     11.2   919.3    0.00       0    71.2
 109    1:10   68.3    26    6.9   161      9.8   919.3    0.00       0    71.1
 109    1:20   68.1    26    8.0   137     12.0   919.2    0.00       0    71.1
 109    1:30   68.1    27    8.4   138     13.3   919.3    0.00       0    71.0
 109    1:40   67.9    28    7.3   138     10.6   919.3    0.00       0    71.0
 109    1:50   67.7    28    6.4   138      9.5   919.3    0.00       0    70.9
 109    2:00   67.6    28    7.4   137     12.5   919.3    0.00       0    70.8
 109    2:10   67.4    29    9.1   136     14.0   919.3    0.00       0    70.7
 109    2:20   67.2    30    7.8   142     11.6   919.3    0.00       0    70.6
 109    2:30   67.0    30    7.2   141     10.3   919.3    0.00       0    70.6
 109    2:40   66.7    30    7.2   136     10.2   919.3    0.00       0    70.5
 109    2:50   66.3    30    7.1   136     10.2   919.4    0.00       0    70.4
 109    3:00   65.9    31    5.0   146      7.7   919.4    0.00       0    70.3
 109    3:10   65.8    31    5.0   151      8.1   919.4    0.00       0    70.2
 109    3:20   65.4    31    4.4   141      6.9   919.5    0.00       0    70.1
 109    3:30   64.8    32    6.0   135      8.0   919.4    0.00       0    70.1
 109    3:40   64.1    32    5.2   138      8.3   919.4    0.00       0    69.9
 109    3:50   64.0    33    4.1   150      6.6   919.3    0.00       0    69.8
 109    4:00   64.1    33    4.0   159      6.0   919.2    0.00       0    69.7
 109    4:10   64.1    33    3.1   170      5.8   919.2    0.00       0    69.6
 109    4:20   62.7    35    1.7   354      3.5   919.2    0.00       0    69.5
 109    4:30   59.1    40    2.4   321      4.2   919.2    0.00       0    69.3
 109    4:40   58.4    41    0.6   295      2.0   919.2    0.00       0    69.2
 109    4:50   57.9    42    0.2   272      1.0   919.2    0.00       0    69.1
 109    5:00   58.0    41    1.3    42      2.9   919.1    0.00       1    69.0
 109    5:10   57.7    40    1.0    17      2.6   919.2    0.00       3    68.8
 109    5:20   57.4    41    0.9   351      2.0   919.3    0.00       3    68.7
 109    5:30   57.3    42    1.1   334      2.7   919.3    0.00      10    68.5
 109    5:40   57.3    42    1.9   331      3.9   919.4    0.00      22    68.4
 109    5:50   58.3    41    2.2   315      6.0   919.6    0.00      59    68.3
 109    6:00   59.8    39    0.9   337      2.2   919.8    0.00      95    68.1
 109    6:10   60.8    38    1.0    28      2.0   920.0    0.00      99    68.0
 109    6:20   61.8    36    0.6    47      1.5   920.3    0.00      73    68.0
 109    6:30   62.5    35    0.9   358      2.9   920.6    0.00      65    68.0
 109    6:40   63.8    33    1.8   326      3.1   920.9    0.00     215    68.1
 109    6:50   65.5    32    0.9   296      2.0   921.2    0.00     230    68.2
 109    7:00   66.1    32    2.5   310      4.5   921.5    0.00     266    68.3
 109    7:10   67.2    31    1.2   300      2.6   921.7    0.00     303    68.6
 109    7:20   68.8    29    1.4   303      3.4   922.0    0.00     352    68.8
 109    7:30   68.7    30    2.1   312      3.7   922.2    0.00     299    69.2
 109    7:40   69.3    29    1.6   312      3.2   922.5    0.00     422    69.5
 109    7:50   70.6    28    0.6     2      2.1   922.6    0.00     487    69.9
 109    8:00   71.2    28    1.2    65      2.6   922.7    0.00     523    70.3
 109    8:10   72.6    27    1.0   153      2.4   922.9    0.00     557    70.7
 109    8:20   75.2    26    0.6   241      3.4   923.0    0.00     587    71.2
 109    8:30   74.4    28    4.6   173      8.8   923.3    0.00     631    71.7
 109    8:40   73.2    28    5.6   181     11.0   923.4    0.00     675    72.2
 109    8:50   73.0    28    6.2   183     12.9   923.4    0.00     712    72.8
 109    9:00   73.9    27    6.3   174     11.1   923.4    0.00     740    73.2
 109    9:10   74.0    27    7.2   182     13.7   923.4    0.00     767    73.6
 109    9:20   74.2    27    6.7   179     12.0   923.5    0.00     799    73.9
 109    9:30   75.3    26    5.3   187     11.0   923.6    0.00     823    74.1
 109    9:40   75.4    25    5.1   185     11.3   923.8    0.00     852    74.2
 109    9:50   76.6    24    4.1   198     10.3   923.9    0.00     872    74.3
 109   10:00   76.2    24    5.6   177     10.4   923.9    0.00     855    74.3
 109   10:10   76.7    24    3.9   200      7.5   923.9    0.00     855    74.3
 109   10:20   77.7    23    2.8   183      7.2   923.9    0.00     475    74.2
 109   10:30   79.4    22    4.0   237      8.3   923.9    0.00       0    74.2
 109   10:40   79.3    22    1.8   170      6.1   924.0    0.00       0    74.1
 109   10:50   80.8    20    1.8   270      6.9   924.1    0.00       0    74.1
 109   11:00   80.5    20    3.1   227      6.9   924.1    0.00       0    74.0
 109   11:10   80.0    20    2.9   222      8.4   924.2    0.00       0    74.0
 109   11:20   80.9    19    2.2     3      6.4   924.0    0.00       0    74.2
 109   11:30   80.2    20    2.8   260      7.2   924.0    0.00       0    74.5
 109   11:40   80.6    19    4.3   217      8.6   923.9    0.00       0    75.1
 109   11:50   80.8    19    2.4   233      8.0   923.8    0.00       0    75.5
 109   12:00   82.6    18    2.4   284      9.6   923.7    0.00       0    76.2
 109   12:10   81.5    19    3.0   132      6.8   923.7    0.00       0    76.8
 109   12:20   80.9    19    3.5   162      8.3   923.7    0.00       0    77.5
 109   12:30   80.9    19    2.7   172      5.8   923.7    0.00       0    78.1
 109   12:40   82.9    17    2.6   279      6.6   923.7    0.00       0    78.7
 109   12:50   83.3    18    3.5   283      7.7   923.7    0.00       0    79.2
 109   13:00   83.6    17    2.9   284      8.3   923.6    0.00       0    79.8
 109   13:10   83.3    17    4.5   307      9.0   923.5    0.00       0    80.2
 109   13:20   81.3    18    1.5    23      4.2   923.3    0.00       0    80.7
 109   13:30   81.6    18    2.9   281      7.9   923.1    0.00       0    81.1
 109   13:40   82.1    18    4.0   293      9.4   922.9    0.00       0    81.4
 109   13:50   81.9    18    3.2   312      7.7   922.7    0.00       0    81.5
 109   14:00   82.2    18    2.6    25      6.7   922.5    0.00       0    81.7
 109   14:10   81.9    18    2.1   193      6.1   922.4    0.00       0    81.8
 109   14:20   82.6    18    1.5   276      5.3   922.2    0.00       0    81.8
 109   14:30   82.1    19    3.9   296      8.6   922.1    0.00       0    81.8
 109   14:40   82.8    18    2.8   285      8.5   921.8    0.00       0    81.7
 109   14:50   81.9    18    2.9    60      5.6   921.7    0.00      19    81.5
 109   15:00   81.9    19    3.4   225      6.7   921.6    0.00     590    81.3
 109   15:10   81.9    18    2.5   196      7.2   921.5    0.00     633    81.1
 109   15:20   81.5    18    4.8   310     13.2   921.4    0.00     543    80.9
 109   15:30   81.8    18    4.6   299      8.9   921.3    0.00     558    80.6
 109   15:40   82.0    18    3.1   288      7.6   921.2    0.00     499    80.4
 109   15:50   82.0    17    3.0   305      7.7   921.2    0.00     461    80.1
 109   16:00   82.1    17    3.2   276      8.8   921.1    0.00     454    79.8
 109   16:10   81.7    17    3.5   200      8.0   921.1    0.00     357    79.6
 109   16:20   81.4    18    3.7   214      8.3   921.1    0.00     435    79.4
 109   16:30   81.5    17    3.1   273      7.6   921.0    0.00     374    79.2
 109   16:40   81.1    17    2.8   196      7.4   921.0    0.00     130    79.0
 109   16:50   80.9    17    3.4   195      6.5   921.0    0.00      67    78.9
 109   17:00   80.7    17    1.8   251      5.6   920.9    0.00      59    78.7
 109   17:10   80.7    16    1.3   280      3.9   920.9    0.00      50    78.5
 109   17:20   80.6    16    3.0   209      6.2   920.8    0.00      42    78.3
 109   17:30   80.5    16    3.5   194      6.3   920.8    0.00      38    78.2
 109   17:40   80.3    17    1.7   263      3.9   920.7    0.00      36    78.0
 109   17:50   80.0    17    4.6   184      9.2   920.6    0.00      30    77.8
 109   18:00   80.1    16    3.9   188      8.1   920.6    0.00      24    77.6
 109   18:10   79.3    17    2.4   221      4.4   920.8    0.00      17    77.5
 109   18:20   78.6    18    2.2   222      4.1   920.8    0.00      10    77.3
 109   18:30   78.8    17    3.4   180      5.0   920.7    0.00       4    77.2
 109   18:40   79.0    17    5.0   181      6.9   920.7    0.00       2    77.0
 109   18:50   78.6    17    4.5   178      6.6   920.8    0.00       0    76.9
 109   19:00   78.6    17    2.7   157      4.3   920.9    0.00       0    76.7
 109   19:10   78.0    17    3.2   138      4.6   920.9    0.00       0    76.6
 109   19:20   76.7    18    3.8   136      5.4   921.0    0.00       0    76.4
 109   19:30   75.8    19    4.5   140      5.9   921.1    0.00       0    76.2
 109   19:40   75.3    19    5.4   138      6.8   921.1    0.00       0    76.0
 109   19:50   75.0    19    5.7   137      7.5   921.1    0.00       0    75.9
 109   20:00   75.1    19    4.9   137      6.7   921.2    0.00       0    75.8
 109   20:10   74.8    19    5.4   129      7.3   921.3    0.00       0    75.6
 109   20:20   74.3    19    5.0   115      7.2   921.3    0.00       0    75.5
 109   20:30   73.6    20    5.0   107      7.2   921.3    0.00       0    75.3
 109   20:40   73.6    21    5.2    98      8.1   921.3    0.00       0    75.2
 109   20:50   73.4    21    5.5    99      8.0   921.4    0.00       0    75.1
 109   21:00   72.9    22    4.8   106      7.1   921.4    0.00       0    74.9
 109   21:10   72.8    22    6.1   100      9.3   921.4    0.00       0    74.8
 109   21:20   73.0    22    4.9   110      7.7   921.4    0.00       0    74.6
 109   21:30   72.6    22    4.8   100      7.0   921.4    0.00       0    74.5
 109   21:40   72.6    22    5.8    95      9.4   921.5    0.00       0    74.4
 109   21:50   72.3    22    6.5    94      9.3   921.4    0.00       0    74.3
 109   22:00   72.2    22    5.6   100      9.3   921.5    0.00       0    74.1
 109   22:10   72.1    22    5.3    96      7.7   921.5    0.00       0    74.0
 109   22:20   71.9    22    5.0    97      7.6   921.5    0.00       0    73.9
 109   22:30   71.7    22    4.9   100      7.9   921.5    0.00       0    73.7
 109   22:40   71.6    22    5.7    93      8.4   921.5    0.00       0    73.6
 109   22:50   71.0    23    3.8   191      6.6   921.6    0.00       0    73.5
 109   23:00   67.1    26    3.1   261      7.9   921.8    0.00       0    73.4
 109   23:10   65.0    27    1.8   198      3.0   921.8    0.00       0    73.3

Return to Pahrump, Nevada graphs page.


Western Regional Climate Center,wrcc@dri.edu